createdAt,value
2019-03-04T00:02:16.235Z,46.21
2019-03-04T00:05:04.212Z,46.41
2019-03-04T00:07:52.157Z,46.03
2019-03-04T00:10:40.318Z,45.70
2019-03-04T00:13:28.487Z,44.79
2019-03-04T00:16:16.287Z,43.90
2019-03-04T00:19:03.984Z,41.75
2019-03-04T00:21:52.164Z,41.81
2019-03-04T00:24:39.782Z,44.81
2019-03-04T00:27:27.560Z,44.81
2019-03-04T00:30:15.769Z,46.00
2019-03-04T00:33:03.721Z,47.00
2019-03-04T00:35:51.675Z,45.85
2019-03-04T00:38:39.856Z,46.82
2019-03-04T00:41:27.909Z,44.80
2019-03-04T00:44:15.628Z,44.65
2019-03-04T00:47:03.497Z,42.58
2019-03-04T00:49:51.344Z,42.95
2019-03-04T00:52:39.658Z,42.25
2019-03-04T00:55:27.995Z,40.89
2019-03-04T00:58:16.120Z,40.30
2019-03-04T01:01:04.240Z,40.53
2019-03-04T01:03:52.588Z,40.90
2019-03-04T01:06:40.355Z,40.82
2019-03-04T01:09:28.385Z,43.17
2019-03-04T01:12:16.511Z,42.93
2019-03-04T01:15:04.673Z,42.31
2019-03-04T01:17:52.833Z,42.58
2019-03-04T01:20:41.309Z,42.13
2019-03-04T01:23:29.128Z,41.27
2019-03-04T01:26:17.025Z,41.09
2019-03-04T01:29:05.340Z,40.86
2019-03-04T01:31:53.448Z,40.42
2019-03-04T01:34:41.481Z,40.17
2019-03-04T01:37:29.343Z,39.98
2019-03-04T01:40:19.299Z,39.99
2019-03-04T01:43:07.229Z,39.38
2019-03-04T01:45:55.168Z,39.31
2019-03-04T01:48:43.407Z,38.92
2019-03-04T01:51:31.350Z,38.69
2019-03-04T01:54:19.336Z,39.08
2019-03-04T01:57:07.038Z,39.59
2019-03-04T01:59:55.114Z,39.49
2019-03-04T02:02:42.999Z,39.44
2019-03-04T02:05:31.066Z,39.33
2019-03-04T02:08:19.438Z,38.50
2019-03-04T02:11:07.318Z,39.00
2019-03-04T02:13:55.511Z,38.54
2019-03-04T02:16:44.015Z,37.74
2019-03-04T02:19:32.369Z,37.31
2019-03-04T02:22:20.434Z,37.72
2019-03-04T02:25:09.865Z,37.65
2019-03-04T02:27:58.173Z,38.06
2019-03-04T02:30:46.437Z,39.53
2019-03-04T02:33:35.069Z,39.73
2019-03-04T02:36:22.762Z,40.00
2019-03-04T02:39:11.126Z,42.09
2019-03-04T02:41:59.101Z,42.52
2019-03-04T02:44:47.186Z,42.47
2019-03-04T02:47:35.591Z,42.84
2019-03-04T02:50:23.575Z,42.49
2019-03-04T02:53:11.536Z,41.98
2019-03-04T02:55:59.655Z,42.00
2019-03-04T02:58:47.974Z,42.04
2019-03-04T03:01:36.103Z,42.01
2019-03-04T03:04:23.918Z,42.03
2019-03-04T03:07:11.741Z,40.91
2019-03-04T03:09:59.567Z,40.64
2019-03-04T03:12:47.647Z,40.03
2019-03-04T03:15:35.546Z,39.74
2019-03-04T03:18:23.789Z,40.37
2019-03-04T03:21:11.567Z,39.30
2019-03-04T03:23:59.655Z,39.07
2019-03-04T03:26:47.609Z,38.99
2019-03-04T03:29:35.986Z,38.97
2019-03-04T03:32:23.890Z,39.74
2019-03-04T03:35:11.751Z,39.46
2019-03-04T03:37:59.649Z,39.38
2019-03-04T03:40:48.220Z,38.25
2019-03-04T03:43:36.078Z,39.62
2019-03-04T03:46:24.082Z,39.00
2019-03-04T03:49:12.392Z,38.97
2019-03-04T03:52:00.852Z,39.49
2019-03-04T03:54:48.711Z,39.34
2019-03-04T03:57:36.725Z,39.35
2019-03-04T04:00:24.938Z,39.22
2019-03-04T04:03:13.139Z,39.59
2019-03-04T04:06:00.908Z,39.46
2019-03-04T04:08:49.377Z,39.52
2019-03-04T04:11:37.612Z,41.56
2019-03-04T04:14:25.228Z,42.57
2019-03-04T04:17:13.570Z,43.01
2019-03-04T04:20:01.683Z,42.90
2019-03-04T04:22:49.651Z,42.58
2019-03-04T04:25:37.697Z,41.83
2019-03-04T04:28:25.286Z,42.35
2019-03-04T04:31:12.964Z,40.73
2019-03-04T04:34:01.129Z,39.74
2019-03-04T04:36:49.481Z,39.72
2019-03-04T04:39:37.604Z,39.48
2019-03-04T04:42:25.486Z,38.81
2019-03-04T04:45:13.574Z,38.24
2019-03-04T04:48:01.939Z,38.43
2019-03-04T04:50:49.779Z,37.93
2019-03-04T04:53:37.636Z,37.98
2019-03-04T04:56:25.707Z,37.54
2019-03-04T04:59:13.887Z,37.77
2019-03-04T05:02:01.613Z,37.55
2019-03-04T05:04:49.868Z,37.78
2019-03-04T05:07:38.030Z,37.35
2019-03-04T05:10:27.197Z,37.65
2019-03-04T05:13:15.263Z,37.55
2019-03-04T05:16:02.856Z,37.77
2019-03-04T05:18:50.703Z,37.71
2019-03-04T05:21:38.906Z,37.75
2019-03-04T05:24:27.009Z,37.41
2019-03-04T05:27:15.189Z,37.37
2019-03-04T05:30:03.280Z,36.56
2019-03-04T05:32:51.831Z,36.92
2019-03-04T05:35:39.913Z,36.01
2019-03-04T05:38:27.736Z,35.45
2019-03-04T05:41:15.650Z,35.14
2019-03-04T05:44:03.645Z,34.99
2019-03-04T05:46:51.799Z,35.08
2019-03-04T05:49:40.315Z,34.76
2019-03-04T05:52:28.131Z,34.91
2019-03-04T05:55:16.049Z,34.78
2019-03-04T05:58:04.087Z,34.08
2019-03-04T06:01:18.259Z,34.00
2019-03-04T06:04:11.090Z,33.79
2019-03-04T06:07:03.087Z,33.87
2019-03-04T06:09:51.208Z,34.86
2019-03-04T06:12:39.071Z,34.18
2019-03-04T06:15:27.254Z,34.81
2019-03-04T06:18:15.380Z,34.48
2019-03-04T06:21:03.567Z,33.82
2019-03-04T06:23:51.576Z,34.51
2019-03-04T06:26:39.606Z,34.95
2019-03-04T06:29:27.396Z,36.40
2019-03-04T06:32:15.636Z,36.30
2019-03-04T06:35:03.804Z,36.07
2019-03-04T06:37:51.990Z,37.33
2019-03-04T06:40:40.290Z,36.19
2019-03-04T06:43:28.272Z,34.12
2019-03-04T06:46:16.564Z,31.62
2019-03-04T06:49:04.579Z,29.37
2019-03-04T06:51:52.871Z,28.98
2019-03-04T06:54:53.693Z,28.57
2019-03-04T06:57:45.423Z,27.07
2019-03-04T07:00:52.069Z,27.62
2019-03-04T07:03:50.905Z,28.30
2019-03-04T07:06:39.155Z,29.25
2019-03-04T07:09:27.196Z,29.24
2019-03-04T07:12:14.950Z,29.25
2019-03-04T07:15:03.024Z,29.54
2019-03-04T07:17:51.002Z,29.82
2019-03-04T07:20:38.914Z,30.72
2019-03-04T07:23:27.178Z,31.41
2019-03-04T07:26:15.619Z,31.74
2019-03-04T07:29:03.505Z,32.31
2019-03-04T07:31:51.545Z,32.59
2019-03-04T07:34:39.707Z,33.21
2019-03-04T07:37:27.511Z,33.26
2019-03-04T07:40:16.480Z,33.64
2019-03-04T07:43:04.515Z,33.96
2019-03-04T07:45:52.111Z,33.57
2019-03-04T07:48:40.271Z,33.19
2019-03-04T07:51:29.666Z,33.58
2019-03-04T07:54:17.843Z,33.67
2019-03-04T07:57:05.610Z,33.59
2019-03-04T07:59:53.380Z,33.79
2019-03-04T08:02:41.164Z,33.86
2019-03-04T08:05:32.517Z,34.79
2019-03-04T08:08:20.640Z,34.49
2019-03-04T08:11:46.323Z,34.91
2019-03-04T08:14:34.543Z,34.87
2019-03-04T08:17:22.712Z,35.01
2019-03-04T08:20:11.877Z,35.04
2019-03-04T08:23:00.306Z,35.09
2019-03-04T08:25:48.731Z,35.12
2019-03-04T08:28:36.790Z,35.13
2019-03-04T08:31:25.399Z,35.52
2019-03-04T08:34:13.742Z,35.78
2019-03-04T08:37:01.769Z,36.19
2019-03-04T08:39:50.036Z,36.30
2019-03-04T08:42:38.418Z,36.88
2019-03-04T08:45:26.757Z,36.84
2019-03-04T08:48:14.885Z,36.88
2019-03-04T08:51:03.463Z,36.89
2019-03-04T08:53:51.394Z,36.92
2019-03-04T08:56:39.150Z,36.83
2019-03-04T08:59:27.354Z,36.88
2019-03-04T09:02:15.668Z,37.18
2019-03-04T09:05:03.777Z,37.59
2019-03-04T09:07:52.221Z,38.25
2019-03-04T09:10:40.102Z,41.29
2019-03-04T09:13:28.880Z,44.34
2019-03-04T09:16:16.896Z,45.71
2019-03-04T09:19:05.067Z,48.03
2019-03-04T09:21:53.301Z,49.28
2019-03-04T09:24:41.104Z,49.64
2019-03-04T09:27:28.844Z,51.21
2019-03-04T09:30:18.520Z,51.87
2019-03-04T09:33:06.304Z,51.94
2019-03-04T09:35:54.539Z,52.76
2019-03-04T09:38:42.634Z,52.94
2019-03-04T09:41:31.242Z,53.18
2019-03-04T09:44:19.327Z,54.51
2019-03-04T09:47:07.319Z,54.89
2019-03-04T09:49:55.458Z,55.13
2019-03-04T09:52:43.289Z,55.71
2019-03-04T09:55:31.957Z,56.08
2019-03-04T09:58:19.887Z,56.04
2019-03-04T10:01:18.668Z,56.26
2019-03-04T10:04:42.900Z,56.99
2019-03-04T10:07:46.936Z,56.96
2019-03-04T10:10:48.528Z,57.56
2019-03-04T10:14:21.215Z,57.27
2019-03-04T10:17:45.425Z,57.67
2019-03-04T10:21:29.513Z,57.10
2019-03-04T10:24:54.609Z,57.20
2019-03-04T10:28:18.806Z,58.01
2019-03-04T10:31:46.685Z,57.15
2019-03-04T10:35:13.614Z,56.37
2019-03-04T10:38:35.060Z,58.34
2019-03-04T10:41:52.032Z,56.92
2019-03-04T10:45:11.928Z,57.58
2019-03-04T10:47:59.941Z,56.42
2019-03-04T10:50:48.056Z,56.09
2019-03-04T10:53:36.550Z,56.54
2019-03-04T10:56:24.544Z,55.90
2019-03-04T10:59:12.562Z,55.46
2019-03-04T11:02:00.655Z,56.29
2019-03-04T11:04:48.724Z,56.20
2019-03-04T11:07:37.056Z,57.01
2019-03-04T11:10:25.627Z,56.59
2019-03-04T11:13:13.665Z,56.11
2019-03-04T11:16:01.900Z,56.26
2019-03-04T11:18:49.937Z,56.54
2019-03-04T11:21:37.803Z,56.65
2019-03-04T11:24:26.028Z,55.17
2019-03-04T11:27:14.236Z,53.93
2019-03-04T11:30:02.258Z,54.91
2019-03-04T11:32:50.384Z,54.63
2019-03-04T11:35:38.547Z,53.69
2019-03-04T11:38:40.807Z,53.55
2019-03-04T11:41:28.809Z,53.25
2019-03-04T11:44:16.804Z,52.65
2019-03-04T11:47:05.098Z,51.90
2019-03-04T11:49:53.527Z,51.84
2019-03-04T11:52:41.726Z,50.90
2019-03-04T11:55:30.160Z,50.96
2019-03-04T11:58:18.313Z,49.92
2019-03-04T12:01:16.015Z,49.32
2019-03-04T12:04:03.955Z,48.94
2019-03-04T12:06:51.741Z,48.51
2019-03-04T12:09:39.373Z,48.41
2019-03-04T12:12:27.630Z,48.72
2019-03-04T12:15:17.091Z,49.19
2019-03-04T12:18:05.783Z,48.35
2019-03-04T12:20:53.656Z,48.82
2019-03-04T12:23:41.954Z,49.13
2019-03-04T12:26:29.838Z,49.39
2019-03-04T12:29:18.032Z,49.36
2019-03-04T12:32:12.346Z,49.64
2019-03-04T12:35:00.306Z,49.34
2019-03-04T12:37:48.842Z,49.20
2019-03-04T12:40:37.251Z,49.82
2019-03-04T12:43:25.536Z,49.19
2019-03-04T12:46:13.229Z,48.96
2019-03-04T12:49:01.109Z,48.70
2019-03-04T12:51:49.470Z,48.45
2019-03-04T12:54:37.354Z,48.10
2019-03-04T12:57:24.951Z,47.41
2019-03-04T13:00:18.186Z,47.05
2019-03-04T13:03:06.314Z,47.21
2019-03-04T13:05:54.519Z,46.85
2019-03-04T13:08:42.480Z,45.62
2019-03-04T13:11:30.151Z,45.47
2019-03-04T13:14:18.647Z,45.28
2019-03-04T13:17:06.475Z,45.24
2019-03-04T13:19:54.423Z,44.74
2019-03-04T13:22:42.010Z,44.42
2019-03-04T13:25:29.844Z,44.22
2019-03-04T13:28:18.176Z,43.77
2019-03-04T13:31:06.734Z,43.87
2019-03-04T13:33:54.597Z,43.49
2019-03-04T13:36:42.952Z,42.91
2019-03-04T13:39:31.390Z,41.82
2019-03-04T13:42:19.784Z,42.06
2019-03-04T13:45:09.949Z,41.84
2019-03-04T13:47:57.971Z,41.22
2019-03-04T13:50:46.031Z,40.69
2019-03-04T13:53:34.037Z,40.54
2019-03-04T13:56:22.447Z,41.37
2019-03-04T13:59:10.357Z,40.13
2019-03-04T14:01:58.279Z,40.17
2019-03-04T14:04:46.278Z,39.21
2019-03-04T14:07:34.946Z,38.69
2019-03-04T14:10:23.326Z,37.96
2019-03-04T14:13:11.569Z,38.47
2019-03-04T14:15:59.549Z,37.61
2019-03-04T14:18:47.811Z,37.57
2019-03-04T14:21:36.208Z,37.50
2019-03-04T14:24:24.445Z,37.58
2019-03-04T14:27:12.498Z,37.28
2019-03-04T14:30:00.440Z,36.58
2019-03-04T14:32:48.335Z,36.89
2019-03-04T14:35:36.829Z,36.34
2019-03-04T14:38:24.850Z,35.34
2019-03-04T14:41:12.795Z,35.50
2019-03-04T14:44:00.624Z,36.35
2019-03-04T14:46:48.989Z,35.90
2019-03-04T14:49:44.513Z,35.89
2019-03-04T14:52:26.888Z,36.09
2019-03-04T14:55:17.136Z,36.61
2019-03-04T14:58:04.978Z,36.23
2019-03-04T15:00:52.938Z,36.36
2019-03-04T15:03:41.277Z,36.03
2019-03-04T15:06:29.461Z,35.86
2019-03-04T15:09:17.922Z,35.56
2019-03-04T15:12:08.174Z,35.53
2019-03-04T15:14:55.830Z,35.83
2019-03-04T15:17:43.840Z,35.49
2019-03-04T15:20:33.623Z,35.88
2019-03-04T15:23:21.567Z,35.78
2019-03-04T15:26:09.231Z,36.75
2019-03-04T15:28:57.396Z,40.38
2019-03-04T15:31:45.682Z,42.30
2019-03-04T15:34:33.817Z,43.27
2019-03-04T15:37:21.801Z,45.45
2019-03-04T15:40:10.041Z,45.90
2019-03-04T15:42:57.915Z,46.04
2019-03-04T15:45:48.052Z,46.76
2019-03-04T15:48:36.322Z,46.89
2019-03-04T15:51:24.732Z,47.67
2019-03-04T15:54:12.769Z,48.03
2019-03-04T15:57:03.697Z,45.76
2019-03-04T15:59:52.172Z,45.53
2019-03-04T16:02:39.996Z,45.50
2019-03-04T16:05:28.066Z,46.34
2019-03-04T16:08:16.366Z,46.20
2019-03-04T16:11:04.841Z,47.51
2019-03-04T16:13:56.117Z,48.60
2019-03-04T16:16:42.536Z,48.75
2019-03-04T16:19:30.822Z,48.93
2019-03-04T16:22:18.853Z,48.98
2019-03-04T16:25:07.486Z,49.06
2019-03-04T16:28:21.922Z,49.12
2019-03-04T16:31:09.632Z,47.73
2019-03-04T16:33:57.574Z,47.78
2019-03-04T16:36:45.890Z,47.74
2019-03-04T16:39:33.845Z,47.59
2019-03-04T16:42:21.862Z,47.01
2019-03-04T16:45:12.116Z,47.22
2019-03-04T16:48:00.105Z,46.76
2019-03-04T16:50:48.151Z,46.08
2019-03-04T16:53:36.353Z,46.00
2019-03-04T16:56:27.137Z,46.35
2019-03-04T16:59:14.941Z,46.94
2019-03-04T17:02:02.954Z,47.24
2019-03-04T17:04:50.980Z,48.27
2019-03-04T17:07:39.172Z,48.28
2019-03-04T17:10:27.464Z,47.72
2019-03-04T17:13:15.485Z,47.18
2019-03-04T17:16:03.591Z,46.93
2019-03-04T17:18:51.506Z,46.90
2019-03-04T17:21:39.761Z,46.56
2019-03-04T17:24:28.136Z,46.53
2019-03-04T17:27:16.003Z,45.89
2019-03-04T17:30:04.813Z,45.74
2019-03-04T17:32:52.627Z,45.79
2019-03-04T17:35:41.007Z,44.86
2019-03-04T17:38:29.252Z,44.14
2019-03-04T17:41:17.343Z,43.41
2019-03-04T17:44:05.667Z,43.77
2019-03-04T17:46:54.455Z,42.97
2019-03-04T17:49:42.910Z,42.86
2019-03-04T17:52:31.041Z,43.06
2019-03-04T17:55:18.867Z,42.76
2019-03-04T17:58:06.827Z,42.48
2019-03-04T18:00:55.771Z,42.82
2019-03-04T18:03:43.870Z,41.67
2019-03-04T18:06:32.223Z,41.31
2019-03-04T18:09:20.247Z,40.90
2019-03-04T18:12:08.472Z,40.80
2019-03-04T18:14:56.959Z,40.73
2019-03-04T18:17:44.937Z,40.53
2019-03-04T18:20:34.640Z,40.40
2019-03-04T18:23:23.313Z,40.46
2019-03-04T18:26:15.537Z,40.24
2019-03-04T18:29:31.684Z,39.95
2019-03-04T18:33:03.723Z,40.19
2019-03-04T18:36:39.560Z,40.40
2019-03-04T18:39:52.218Z,39.78
2019-03-04T18:43:18.490Z,39.88
2019-03-04T18:46:37.373Z,39.80
2019-03-04T18:49:25.729Z,39.74
2019-03-04T18:52:14.128Z,39.68
2019-03-04T18:55:02.306Z,39.46
2019-03-04T18:57:54.149Z,39.94
2019-03-04T19:00:43.188Z,39.72
2019-03-04T19:03:31.332Z,39.58
2019-03-04T19:06:19.290Z,39.67
2019-03-04T19:09:09.711Z,39.77
2019-03-04T19:11:58.243Z,39.41
2019-03-04T19:14:45.909Z,39.19
2019-03-04T19:17:34.109Z,39.38
2019-03-04T19:20:22.653Z,39.68
2019-03-04T19:23:10.648Z,39.38
2019-03-04T19:25:58.833Z,39.59
2019-03-04T19:28:47.652Z,39.17
2019-03-04T19:31:37.685Z,39.38
2019-03-04T19:34:26.117Z,39.15
2019-03-04T19:37:14.258Z,39.03
2019-03-04T19:40:02.752Z,39.17
2019-03-04T19:42:50.974Z,39.68
2019-03-04T19:45:38.976Z,39.52
2019-03-04T19:48:27.487Z,38.88
2019-03-04T19:51:15.269Z,39.22
2019-03-04T19:54:03.139Z,38.83
2019-03-04T19:56:51.858Z,39.09
2019-03-04T19:59:39.985Z,38.77
2019-03-04T20:02:28.213Z,38.80
2019-03-04T20:05:17.509Z,38.93
2019-03-04T20:08:05.309Z,38.87
2019-03-04T20:10:53.552Z,39.02
2019-03-04T20:13:41.612Z,39.38
2019-03-04T20:16:29.473Z,39.47
2019-03-04T20:19:17.726Z,39.51
2019-03-04T20:22:06.023Z,39.39
2019-03-04T20:24:54.560Z,39.92
2019-03-04T20:27:43.138Z,40.09
2019-03-04T20:30:31.343Z,40.21
2019-03-04T20:33:19.369Z,40.04
2019-03-04T20:36:07.612Z,39.86
2019-03-04T20:38:55.911Z,40.26
2019-03-04T20:41:44.085Z,40.10
2019-03-04T20:44:32.535Z,39.63
2019-03-04T20:47:20.614Z,39.84
2019-03-04T20:50:11.240Z,39.86
2019-03-04T20:52:59.655Z,39.67
2019-03-04T20:55:47.818Z,39.51
2019-03-04T20:58:35.990Z,39.65
2019-03-04T21:01:24.707Z,39.77
2019-03-04T21:04:12.968Z,39.44
2019-03-04T21:07:00.653Z,39.35
2019-03-04T21:09:48.917Z,39.52
2019-03-04T21:12:36.903Z,41.72
2019-03-04T21:15:26.224Z,45.21
2019-03-04T21:18:14.547Z,47.32
2019-03-04T21:21:02.622Z,49.41
2019-03-04T21:23:50.885Z,50.15
2019-03-04T21:26:42.334Z,50.80
2019-03-04T21:30:27.047Z,52.04
2019-03-04T21:33:35.665Z,52.03
2019-03-04T21:36:50.964Z,51.83
2019-03-04T21:39:39.206Z,51.14
2019-03-04T21:42:52.232Z,50.80
2019-03-04T21:46:04.188Z,50.92
2019-03-04T21:49:00.137Z,50.77
2019-03-04T21:52:47.113Z,50.03
2019-03-04T21:55:47.197Z,47.09
2019-03-04T21:58:35.389Z,45.74
2019-03-04T22:01:31.325Z,45.83
2019-03-04T22:04:19.384Z,50.54
2019-03-04T22:07:07.730Z,52.60
2019-03-04T22:09:55.684Z,53.34
2019-03-04T22:12:44.352Z,53.67
2019-03-04T22:15:32.095Z,54.61
2019-03-04T22:18:20.323Z,54.93
2019-03-04T22:21:16.526Z,55.32
2019-03-04T22:23:58.030Z,55.73
2019-03-04T22:26:46.346Z,56.62
2019-03-04T22:29:34.626Z,57.15
2019-03-04T22:32:22.528Z,57.21
2019-03-04T22:35:12.129Z,57.56
2019-03-04T22:38:00.135Z,57.26
2019-03-04T22:40:48.177Z,57.85
2019-03-04T22:43:36.564Z,57.61
2019-03-04T22:46:24.529Z,57.87
2019-03-04T22:49:12.870Z,57.86
2019-03-04T22:52:01.703Z,57.70
2019-03-04T22:54:49.917Z,55.26
2019-03-04T22:57:38.111Z,52.86
2019-03-04T23:01:47.604Z,51.41
2019-03-04T23:04:55.655Z,50.24
2019-03-04T23:07:52.504Z,48.29
2019-03-04T23:10:46.261Z,48.20
2019-03-04T23:13:42.614Z,46.53
2019-03-04T23:16:32.410Z,45.62
2019-03-04T23:19:20.567Z,45.79
2019-03-04T23:22:08.780Z,45.55
2019-03-04T23:24:57.017Z,45.32
2019-03-04T23:27:45.284Z,44.79
2019-03-04T23:30:33.760Z,44.48
2019-03-04T23:33:21.344Z,44.57
2019-03-04T23:36:09.347Z,44.72
2019-03-04T23:38:57.559Z,44.85
2019-03-04T23:41:48.355Z,45.23
2019-03-04T23:44:36.383Z,45.46
2019-03-04T23:47:24.411Z,45.54
2019-03-04T23:50:15.291Z,45.65
2019-03-04T23:53:03.280Z,45.82
2019-03-04T23:55:51.052Z,45.97
2019-03-04T23:58:38.837Z,46.48
